Flight Track Log - Related Links

Times and Time Zones

All times are in EDT time to prevent confusion due to time zone crossing. See the C-FRKI flight status page for this flight to view local times or setup timezone preferences in your user account.

Time Position Orientation Groundspeed Altitude Reporting Facility
EDT Latitude Longitude Course Direction KTS MPH feet Rate Location/Type
Mon 06:02:28 PM 43.6833 -79.5667 65° Northeast 200 230 2,700  Level Toronto Center
Mon 06:03:28 PM 43.7167 -79.4667 65° Northeast 280 322 6,400 2,150 Climbing Toronto Center
Mon 06:04:28 PM 43.7333 -79.3500 79° East 290 334 7,000 950 Climbing Toronto Center
Mon 06:05:28 PM 43.7167 -79.2667 105° East 290 334 8,300 2,900 Climbing Toronto Center
Mon 06:06:28 PM 43.7167 -79.1333 90° East 310 357 12,800 4,200 Climbing Toronto Center
Mon 06:07:28 PM 43.7500 -79.0167 68° East 340 391 16,700 3,700 Climbing Toronto Center
Mon 06:08:28 PM 43.7833 -78.8667 73° East 360 414 20,200 3,550 Climbing Toronto Center
Mon 06:09:28 PM 43.8167 -78.7333 71° East 380 437 23,800 3,400 Climbing Toronto Center
Mon 06:11:28 PM 43.8500 -78.4333 81° East 380 437 30,400 2,900 Climbing Toronto Center
Mon 06:12:28 PM 43.8833 -78.2833 73° East 380 437 32,500 2,150 Climbing Toronto Center
Mon 06:13:28 PM 43.9167 -78.1500 71° East 390 449 34,700 2,000 Climbing Toronto Center
Mon 06:14:28 PM 43.9500 -78.0167 71° East 400 460 36,500 1,700 Climbing Toronto Center
Mon 06:15:28 PM 43.9833 -77.8500 74° East 400 460 38,100 1,500 Climbing Toronto Center
Mon 06:16:28 PM 44.0167 -77.7167 71° East 400 460 39,500 1,200 Climbing Toronto Center
Mon 06:17:28 PM 44.0500 -77.5500 74° East 410 472 40,500 750 Climbing Toronto Center
Mon 06:18:28 PM 44.0833 -77.4000 73° East 410 472 41,000 250 Climbing Toronto Center
Mon 06:19:28 PM 44.1167 -77.2333 74° East 440 506 41,000  Level Toronto Center
Mon 06:20:28 PM 44.1667 -77.0833 65° Northeast 460 529 41,000  Level Toronto Center
Mon 06:21:28 PM 44.2333 -76.9167 61° Northeast 480 552 41,000  Level Toronto Center
Mon 06:22:28 PM 44.2833 -76.7500 67° East 500 575 41,000  Level Toronto Center
Mon 06:23:28 PM 44.3333 -76.5500 71° East 500 575 41,000  Level Toronto Center
Mon 06:24:28 PM 44.4000 -76.3667 63° Northeast 500 575 41,000  Level Toronto Center
Mon 06:25:28 PM 44.4667 -76.2000 61° Northeast 500 575 41,000  Level Toronto Center
Mon 06:26:28 PM 44.5000 -76.0000 77° East 500 575 41,000  Level Toronto Center
Mon 06:27:28 PM 44.5667 -75.8333 61° Northeast 500 575 41,000  Level Toronto Center
Mon 06:28:28 PM 44.6333 -75.6500 63° Northeast 500 575 41,000  Level Toronto Center
Mon 06:29:28 PM 44.6667 -75.4833 74° East 500 575 41,000  Level Toronto Center
Mon 06:30:28 PM 44.7333 -75.2833 65° Northeast 500 575 41,000  Level Toronto Center
Mon 06:31:28 PM 44.7667 -75.1167 74° East 500 575 41,000  Level Toronto Center
Mon 06:32:28 PM 44.8167 -74.9333 69° East 500 575 41,000  Level Toronto Center
Mon 06:33:28 PM 44.8833 -74.7333 65° Northeast 500 575 41,000  Level Toronto Center
Mon 06:34:28 PM 44.9167 -74.5500 76° East 500 575 41,000  Level Toronto Center
Mon 06:35:28 PM 44.9667 -74.3833 67° East 500 575 41,000  Level Toronto Center
Mon 06:36:27 PM 45.0000 -74.1833 77° East 500 575 41,000  Level Toronto Center
Mon 06:37:27 PM 45.0500 -74.0167 67° East 500 575 41,000  Level Toronto Center
Mon 06:38:25 PM 45.0667 -73.8333 83° East 500 575 41,000  Level Montreal Center
Mon 06:39:25 PM 45.1167 -73.6500 69° East 500 575 41,000  Level Montreal Center
Mon 06:40:25 PM 45.1500 -73.4500 77° East 500 575 41,000  Level Montreal Center
Mon 06:41:25 PM 45.1667 -73.2833 82° East 500 575 41,000  Level Montreal Center
Mon 06:42:25 PM 45.2167 -73.0667 72° East 500 575 41,000  Level Montreal Center
Mon 06:43:25 PM 45.2500 -72.8833 75° East 500 575 41,000  Level Montreal Center
Mon 06:44:25 PM 45.2667 -72.6833 83° East 500 575 41,000  Level Montreal Center
Mon 06:45:25 PM 45.3000 -72.4833 77° East 500 575 41,000  Level Montreal Center
Mon 06:46:25 PM 45.3167 -72.3000 83° East 500 575 41,000  Level Montreal Center
Mon 06:47:25 PM 45.3167 -72.0833 90° East 500 575 41,000  Level Montreal Center
Mon 06:48:25 PM 45.3333 -71.9000 83° East 500 575 41,000  Level Montreal Center
Mon 06:49:25 PM 45.3333 -71.6833 90° East 500 575 41,000  Level Montreal Center
Mon 06:50:25 PM 45.3500 -71.4833 83° East 500 575 41,000  Level Montreal Center
Mon 06:51:25 PM 45.3500 -71.3000 90° East 500 575 41,000  Level Montreal Center
Mon 06:53:01 PM 45.3500 -71.0167 90° East 500 575 41,000  Level Moncton Center
Mon 06:53:27 PM 45.3514 -70.9339 89° East 284 327 41,000  Level Boston Center
Mon 06:54:27 PM 45.3486 -70.7361 91° East 396 456 41,000  Level Boston Center
Mon 06:55:27 PM 45.3433 -70.5208 92° East 455 524 41,000  Level Boston Center
Mon 06:56:27 PM 45.3378 -70.3231 92° East 477 549 41,000  Level Boston Center
Mon 06:57:27 PM 45.3319 -70.1256 92° East 496 571 41,000  Level Boston Center
Mon 06:58:27 PM 45.3278 -69.9278 92° East 496 571 41,000  Level Boston Center
Mon 06:59:27 PM 45.3211 -69.7303 93° East 496 571 41,000  Level Boston Center
Mon 07:00:27 PM 45.3144 -69.5328 93° East 496 571 41,000 -100 Level Boston Center
Mon 07:01:27 PM 45.3114 -69.3353 91° East 496 571 40,800 -850 Descending Boston Center
Mon 07:02:27 PM 45.3036 -69.1347 93° East 496 571 39,300 -1,350 Descending Boston Center
Mon 07:03:27 PM 45.2944 -68.9553 94° East 496 571 38,100 -1,400 Descending Boston Center
Mon 07:04:27 PM 45.2881 -68.7492 92° East 508 585 36,500 -1,550 Descending Boston Center
Mon 07:05:27 PM 45.2789 -68.5344 93° East 520 598 35,000 -1,650 Descending Boston Center
Mon 07:06:27 PM 45.2694 -68.3256 94° East 533 613 33,200 -2,250 Descending Boston Center
Mon 07:07:27 PM 45.2619 -68.1194 93° East 533 613 30,500 -2,550 Descending Boston Center
Mon 07:08:27 PM 45.2506 -67.9256 95° East 510 587 28,100 -2,553 Descending Boston Center
Mon 07:09:01 PM 45.2167 -67.8000 111° Southeast 460 529 26,500 -2,362 Descending Moncton Center
Mon 07:10:01 PM 45.2333 -67.6333 82° East 440 506 24,400 -2,023 Descending Moncton Center
Mon 07:10:27 PM 45.2364 -67.5758 86° East 453 521 23,600 -2,093 Descending Boston Center
Mon 07:11:27 PM 45.2269 -67.4056 94° East 438 504 21,400 -2,234 Descending Boston Center
Mon 07:12:01 PM 45.2000 -67.3000 110° East 420 483 20,100 -2,106 Descending Moncton Center
Mon 07:13:01 PM 45.2000 -67.1500 90° East 400 460 18,100 -1,650 Descending Moncton Center
Mon 07:14:01 PM 45.2000 -66.9833 90° East 390 449 16,800 -1,800 Descending Moncton Center
Mon 07:15:01 PM 45.1833 -66.8333 99° East 380 437 14,500 -2,200 Descending Moncton Center
Mon 07:16:01 PM 45.1667 -66.7000 100° East 360 414 12,400 -1,850 Descending Moncton Center
Mon 07:17:01 PM 45.1667 -66.5833 90° East 330 380 10,800 -1,550 Descending Moncton Center
Mon 07:18:01 PM 45.1500 -66.4667 101° East 290 334 9,300 -1,400 Descending Moncton Center
Mon 07:20:01 PM 45.1333 -66.2500 96° East 270 311 6,600 -1,300 Descending Moncton Center
Mon 07:21:01 PM 45.1500 -66.1500 77° East 260 299 5,400 -1,200 Descending Moncton Center
Mon 07:22:01 PM 45.1333 -66.0500 103° East 250 288 4,200 -1,200 Descending Moncton Center
Mon 07:23:01 PM 45.1833 -65.9833 43° Northeast 240 276 3,000 -1,150 Descending Moncton Center
Mon 07:24:01 PM 45.2167 -65.9333 47° Northeast 200 230 1,900 -900 Descending Moncton Center
Mon 07:25:01 PM 45.2500 -65.9167 19° North 120 138 1,200 -600 Descending Moncton Center
Mon 07:26:01 PM 45.2833 -65.9000 19° North 100 115 700 -250 Descending Moncton Center
Mon 07:27:01 PM 45.3000 -65.9000 360° North 100 115 700  Level Moncton Center

Login

Don't have an account? Register now (free) for customized features, flight alerts, and more!